sensor_id;sensor_type;location;lat;lon;timestamp;temperature;humidity
67182;DHT22;54114;53.524;49.396;2022-12-18T00:00:58;1.00;79.60
67182;DHT22;54114;53.524;49.396;2022-12-18T00:03:27;1.00;79.70
67182;DHT22;54114;53.524;49.396;2022-12-18T00:05:56;0.90;79.80
67182;DHT22;54114;53.524;49.396;2022-12-18T00:08:22;1.00;80.00
67182;DHT22;54114;53.524;49.396;2022-12-18T00:10:49;0.90;80.10
67182;DHT22;54114;53.524;49.396;2022-12-18T00:13:17;0.90;80.30
67182;DHT22;54114;53.524;49.396;2022-12-18T00:15:44;0.90;80.50
67182;DHT22;54114;53.524;49.396;2022-12-18T00:18:10;1.00;80.60
67182;DHT22;54114;53.524;49.396;2022-12-18T00:20:39;1.00;80.80
67182;DHT22;54114;53.524;49.396;2022-12-18T00:23:06;1.00;80.90
67182;DHT22;54114;53.524;49.396;2022-12-18T00:25:36;1.00;81.70
67182;DHT22;54114;53.524;49.396;2022-12-18T00:28:03;1.00;81.20
67182;DHT22;54114;53.524;49.396;2022-12-18T00:30:30;1.10;81.40
67182;DHT22;54114;53.524;49.396;2022-12-18T00:32:57;1.10;81.60
67182;DHT22;54114;53.524;49.396;2022-12-18T00:35:23;1.10;82.20
67182;DHT22;54114;53.524;49.396;2022-12-18T00:37:49;1.20;81.60
67182;DHT22;54114;53.524;49.396;2022-12-18T00:40:18;1.10;81.50
67182;DHT22;54114;53.524;49.396;2022-12-18T00:42:45;1.20;81.30
67182;DHT22;54114;53.524;49.396;2022-12-18T00:45:25;1.20;81.30
67182;DHT22;54114;53.524;49.396;2022-12-18T00:47:56;1.20;81.20
67182;DHT22;54114;53.524;49.396;2022-12-18T00:50:23;1.20;81.10
67182;DHT22;54114;53.524;49.396;2022-12-18T00:52:50;1.10;81.10
67182;DHT22;54114;53.524;49.396;2022-12-18T00:55:19;1.10;81.20
67182;DHT22;54114;53.524;49.396;2022-12-18T00:57:48;1.10;81.10
67182;DHT22;54114;53.524;49.396;2022-12-18T01:00:14;1.10;81.20
67182;DHT22;54114;53.524;49.396;2022-12-18T01:02:43;1.00;81.50
67182;DHT22;54114;53.524;49.396;2022-12-18T01:05:10;1.00;81.70
67182;DHT22;54114;53.524;49.396;2022-12-18T01:07:37;1.00;82.30
67182;DHT22;54114;53.524;49.396;2022-12-18T01:10:05;1.00;82.40
67182;DHT22;54114;53.524;49.396;2022-12-18T01:12:31;1.00;82.60
67182;DHT22;54114;53.524;49.396;2022-12-18T01:14:58;1.10;82.70
67182;DHT22;54114;53.524;49.396;2022-12-18T01:17:24;1.00;82.90
67182;DHT22;54114;53.524;49.396;2022-12-18T01:19:53;1.00;83.30
67182;DHT22;54114;53.524;49.396;2022-12-18T01:22:19;1.10;83.50
67182;DHT22;54114;53.524;49.396;2022-12-18T01:24:48;1.20;83.70
67182;DHT22;54114;53.524;49.396;2022-12-18T01:27:14;1.20;83.70
67182;DHT22;54114;53.524;49.396;2022-12-18T01:29:41;1.20;83.70
67182;DHT22;54114;53.524;49.396;2022-12-18T01:32:08;1.20;83.90
67182;DHT22;54114;53.524;49.396;2022-12-18T01:34:37;1.30;84.00
67182;DHT22;54114;53.524;49.396;2022-12-18T01:37:04;1.20;84.10
67182;DHT22;54114;53.524;49.396;2022-12-18T01:39:31;1.30;84.30
67182;DHT22;54114;53.524;49.396;2022-12-18T01:42:00;1.20;84.50
67182;DHT22;54114;53.524;49.396;2022-12-18T01:47:41;1.20;84.60
67182;DHT22;54114;53.524;49.396;2022-12-18T01:52:46;1.20;85.10
67182;DHT22;54114;53.524;49.396;2022-12-18T01:55:14;1.30;85.20
67182;DHT22;54114;53.524;49.396;2022-12-18T01:57:42;1.30;85.10
67182;DHT22;54114;53.524;49.396;2022-12-18T02:00:11;1.30;84.90
67182;DHT22;54114;53.524;49.396;2022-12-18T02:02:47;1.30;85.00
67182;DHT22;54114;53.524;49.396;2022-12-18T02:05:15;1.20;85.20
67182;DHT22;54114;53.524;49.396;2022-12-18T02:10:31;1.20;85.40
67182;DHT22;54114;53.524;49.396;2022-12-18T02:13:14;1.20;85.40
67182;DHT22;54114;53.524;49.396;2022-12-18T02:18:38;1.20;85.60
67182;DHT22;54114;53.524;49.396;2022-12-18T02:27:06;1.10;85.60
67182;DHT22;54114;53.524;49.396;2022-12-18T02:29:55;1.10;85.60
67182;DHT22;54114;53.524;49.396;2022-12-18T02:32:24;1.10;85.70
67182;DHT22;54114;53.524;49.396;2022-12-18T02:34:52;1.10;85.70
67182;DHT22;54114;53.524;49.396;2022-12-18T02:37:21;1.10;85.60
67182;DHT22;54114;53.524;49.396;2022-12-18T02:39:49;1.10;85.40
67182;DHT22;54114;53.524;49.396;2022-12-18T02:42:16;1.10;85.30
67182;DHT22;54114;53.524;49.396;2022-12-18T02:44:44;1.10;85.30
67182;DHT22;54114;53.524;49.396;2022-12-18T02:47:12;1.00;85.30
67182;DHT22;54114;53.524;49.396;2022-12-18T02:55:19;1.20;85.80
67182;DHT22;54114;53.524;49.396;2022-12-18T02:57:58;1.20;85.70
67182;DHT22;54114;53.524;49.396;2022-12-18T03:06:37;1.30;86.40
67182;DHT22;54114;53.524;49.396;2022-12-18T03:09:07;1.50;86.60
67182;DHT22;54114;53.524;49.396;2022-12-18T03:11:36;1.50;86.50
67182;DHT22;54114;53.524;49.396;2022-12-18T03:14:26;1.60;86.50
67182;DHT22;54114;53.524;49.396;2022-12-18T03:16:55;1.70;87.00
67182;DHT22;54114;53.524;49.396;2022-12-18T03:19:29;1.70;86.30
67182;DHT22;54114;53.524;49.396;2022-12-18T03:21:57;1.70;86.10
67182;DHT22;54114;53.524;49.396;2022-12-18T03:24:25;1.70;86.30
67182;DHT22;54114;53.524;49.396;2022-12-18T03:26:56;1.70;86.50
67182;DHT22;54114;53.524;49.396;2022-12-18T03:31:56;1.80;87.20
67182;DHT22;54114;53.524;49.396;2022-12-18T03:34:29;1.90;87.30
67182;DHT22;54114;53.524;49.396;2022-12-18T03:36:57;1.90;87.50
67182;DHT22;54114;53.524;49.396;2022-12-18T03:39:23;2.00;87.60
67182;DHT22;54114;53.524;49.396;2022-12-18T03:44:40;2.00;87.90
67182;DHT22;54114;53.524;49.396;2022-12-18T03:53:02;2.10;88.60
67182;DHT22;54114;53.524;49.396;2022-12-18T03:55:32;2.10;88.80
67182;DHT22;54114;53.524;49.396;2022-12-18T03:58:00;2.10;89.00
67182;DHT22;54114;53.524;49.396;2022-12-18T04:00:29;2.10;89.10
67182;DHT22;54114;53.524;49.396;2022-12-18T04:02:57;2.10;89.30
67182;DHT22;54114;53.524;49.396;2022-12-18T04:05:26;2.10;89.40
67182;DHT22;54114;53.524;49.396;2022-12-18T04:07:55;2.20;89.60
67182;DHT22;54114;53.524;49.396;2022-12-18T04:10:22;2.20;89.80
67182;DHT22;54114;53.524;49.396;2022-12-18T04:12:48;2.20;89.80
67182;DHT22;54114;53.524;49.396;2022-12-18T04:15:17;2.20;90.00
67182;DHT22;54114;53.524;49.396;2022-12-18T04:17:47;2.20;90.00
67182;DHT22;54114;53.524;49.396;2022-12-18T04:20:14;2.20;90.10
67182;DHT22;54114;53.524;49.396;2022-12-18T04:22:41;2.30;90.20
67182;DHT22;54114;53.524;49.396;2022-12-18T04:25:11;2.30;90.30
67182;DHT22;54114;53.524;49.396;2022-12-18T04:27:38;2.30;90.40
67182;DHT22;54114;53.524;49.396;2022-12-18T04:30:05;2.30;90.50
67182;DHT22;54114;53.524;49.396;2022-12-18T04:32:35;2.30;90.50
67182;DHT22;54114;53.524;49.396;2022-12-18T04:35:01;2.30;90.60
67182;DHT22;54114;53.524;49.396;2022-12-18T04:37:29;2.30;90.60
67182;DHT22;54114;53.524;49.396;2022-12-18T04:39:56;2.30;90.70
67182;DHT22;54114;53.524;49.396;2022-12-18T04:42:22;2.30;90.70
67182;DHT22;54114;53.524;49.396;2022-12-18T04:44:51;2.30;90.80
67182;DHT22;54114;53.524;49.396;2022-12-18T04:47:17;2.30;90.80
67182;DHT22;54114;53.524;49.396;2022-12-18T04:49:46;2.40;90.80
67182;DHT22;54114;53.524;49.396;2022-12-18T04:52:12;2.40;90.80
67182;DHT22;54114;53.524;49.396;2022-12-18T04:54:41;2.40;90.90
67182;DHT22;54114;53.524;49.396;2022-12-18T04:57:07;2.40;90.90
67182;DHT22;54114;53.524;49.396;2022-12-18T04:59:36;2.40;90.90
67182;DHT22;54114;53.524;49.396;2022-12-18T05:02:04;2.40;90.90
67182;DHT22;54114;53.524;49.396;2022-12-18T05:04:31;2.40;91.00
67182;DHT22;54114;53.524;49.396;2022-12-18T05:07:00;2.40;91.10
67182;DHT22;54114;53.524;49.396;2022-12-18T05:09:29;2.40;91.20
67182;DHT22;54114;53.524;49.396;2022-12-18T05:12:00;2.40;91.10
67182;DHT22;54114;53.524;49.396;2022-12-18T05:14:26;2.40;91.10
67182;DHT22;54114;53.524;49.396;2022-12-18T05:16:57;2.40;91.10
67182;DHT22;54114;53.524;49.396;2022-12-18T05:19:23;2.40;91.20
67182;DHT22;54114;53.524;49.396;2022-12-18T05:21:49;2.40;91.30
67182;DHT22;54114;53.524;49.396;2022-12-18T05:24:16;2.50;91.40
67182;DHT22;54114;53.524;49.396;2022-12-18T05:26:44;2.50;91.50
67182;DHT22;54114;53.524;49.396;2022-12-18T05:29:11;2.50;91.50
67182;DHT22;54114;53.524;49.396;2022-12-18T05:31:40;2.50;91.60
67182;DHT22;54114;53.524;49.396;2022-12-18T05:34:06;2.50;91.60
67182;DHT22;54114;53.524;49.396;2022-12-18T05:36:33;2.50;91.50
67182;DHT22;54114;53.524;49.396;2022-12-18T05:38:59;2.50;91.60
67182;DHT22;54114;53.524;49.396;2022-12-18T05:41:26;2.50;91.60
67182;DHT22;54114;53.524;49.396;2022-12-18T05:43:53;2.50;91.60
67182;DHT22;54114;53.524;49.396;2022-12-18T05:46:19;2.50;91.70
67182;DHT22;54114;53.524;49.396;2022-12-18T05:48:48;2.50;91.70
67182;DHT22;54114;53.524;49.396;2022-12-18T05:51:16;2.50;91.70
67182;DHT22;54114;53.524;49.396;2022-12-18T05:53:44;2.50;91.80
67182;DHT22;54114;53.524;49.396;2022-12-18T05:56:12;2.50;91.90
67182;DHT22;54114;53.524;49.396;2022-12-18T05:58:43;2.50;91.90
67182;DHT22;54114;53.524;49.396;2022-12-18T06:01:13;2.50;92.00
67182;DHT22;54114;53.524;49.396;2022-12-18T06:03:46;2.60;92.20
67182;DHT22;54114;53.524;49.396;2022-12-18T06:06:19;2.60;92.10
67182;DHT22;54114;53.524;49.396;2022-12-18T06:08:50;2.60;92.10
67182;DHT22;54114;53.524;49.396;2022-12-18T06:11:18;2.60;92.10
67182;DHT22;54114;53.524;49.396;2022-12-18T06:13:46;2.60;91.90
67182;DHT22;54114;53.524;49.396;2022-12-18T06:16:15;2.60;91.80
67182;DHT22;54114;53.524;49.396;2022-12-18T06:18:43;2.60;91.70
67182;DHT22;54114;53.524;49.396;2022-12-18T06:21:10;2.60;91.80
67182;DHT22;54114;53.524;49.396;2022-12-18T06:23:36;2.60;91.80
67182;DHT22;54114;53.524;49.396;2022-12-18T06:26:05;2.60;91.80
67182;DHT22;54114;53.524;49.396;2022-12-18T06:28:36;2.60;91.70
67182;DHT22;54114;53.524;49.396;2022-12-18T06:31:04;2.50;91.70
67182;DHT22;54114;53.524;49.396;2022-12-18T06:33:33;2.50;91.70
67182;DHT22;54114;53.524;49.396;2022-12-18T06:36:06;2.50;91.50
67182;DHT22;54114;53.524;49.396;2022-12-18T06:38:37;2.50;91.50
67182;DHT22;54114;53.524;49.396;2022-12-18T06:41:14;2.40;91.60
67182;DHT22;54114;53.524;49.396;2022-12-18T06:43:42;2.40;91.70
67182;DHT22;54114;53.524;49.396;2022-12-18T06:46:14;2.40;91.60
67182;DHT22;54114;53.524;49.396;2022-12-18T06:48:40;2.40;91.60
67182;DHT22;54114;53.524;49.396;2022-12-18T06:51:07;2.40;91.70
67182;DHT22;54114;53.524;49.396;2022-12-18T06:53:33;2.30;91.60
67182;DHT22;54114;53.524;49.396;2022-12-18T06:56:03;2.40;91.60
67182;DHT22;54114;53.524;49.396;2022-12-18T06:58:31;2.40;91.70
67182;DHT22;54114;53.524;49.396;2022-12-18T07:01:01;2.40;91.70
67182;DHT22;54114;53.524;49.396;2022-12-18T07:03:28;2.40;91.60
67182;DHT22;54114;53.524;49.396;2022-12-18T07:05:57;2.40;91.50
67182;DHT22;54114;53.524;49.396;2022-12-18T07:08:24;2.40;91.40
67182;DHT22;54114;53.524;49.396;2022-12-18T07:10:50;2.40;91.30
67182;DHT22;54114;53.524;49.396;2022-12-18T07:13:17;2.40;91.30
67182;DHT22;54114;53.524;49.396;2022-12-18T07:15:43;2.30;91.20
67182;DHT22;54114;53.524;49.396;2022-12-18T07:18:10;2.40;91.20
67182;DHT22;54114;53.524;49.396;2022-12-18T07:20:38;2.30;91.20
67182;DHT22;54114;53.524;49.396;2022-12-18T07:23:05;2.40;91.20
67182;DHT22;54114;53.524;49.396;2022-12-18T07:25:34;2.30;91.20
67182;DHT22;54114;53.524;49.396;2022-12-18T07:28:03;2.40;91.20
67182;DHT22;54114;53.524;49.396;2022-12-18T07:30:30;2.40;91.10
67182;DHT22;54114;53.524;49.396;2022-12-18T07:32:57;2.30;91.00
67182;DHT22;54114;53.524;49.396;2022-12-18T07:35:23;2.40;91.00
67182;DHT22;54114;53.524;49.396;2022-12-18T07:37:52;2.30;91.00
67182;DHT22;54114;53.524;49.396;2022-12-18T07:40:18;2.30;90.90
67182;DHT22;54114;53.524;49.396;2022-12-18T07:42:45;2.30;90.90
67182;DHT22;54114;53.524;49.396;2022-12-18T07:45:11;2.30;90.90
67182;DHT22;54114;53.524;49.396;2022-12-18T07:47:37;2.30;90.90
67182;DHT22;54114;53.524;49.396;2022-12-18T07:50:04;2.40;91.00
67182;DHT22;54114;53.524;49.396;2022-12-18T07:52:33;2.30;90.90
67182;DHT22;54114;53.524;49.396;2022-12-18T07:55:00;2.40;90.80
67182;DHT22;54114;53.524;49.396;2022-12-18T07:57:26;2.40;90.80
67182;DHT22;54114;53.524;49.396;2022-12-18T07:59:55;2.40;90.90
67182;DHT22;54114;53.524;49.396;2022-12-18T08:02:23;2.40;90.90
67182;DHT22;54114;53.524;49.396;2022-12-18T08:04:52;2.40;90.90
67182;DHT22;54114;53.524;49.396;2022-12-18T08:07:21;2.40;90.90
67182;DHT22;54114;53.524;49.396;2022-12-18T08:09:50;2.40;90.90
67182;DHT22;54114;53.524;49.396;2022-12-18T08:12:17;2.40;90.90
67182;DHT22;54114;53.524;49.396;2022-12-18T08:14:43;2.40;90.90
67182;DHT22;54114;53.524;49.396;2022-12-18T08:17:12;2.40;90.90
67182;DHT22;54114;53.524;49.396;2022-12-18T08:19:38;2.40;90.90
67182;DHT22;54114;53.524;49.396;2022-12-18T08:22:05;2.40;91.00
67182;DHT22;54114;53.524;49.396;2022-12-18T08:24:31;2.40;91.10
67182;DHT22;54114;53.524;49.396;2022-12-18T08:26:57;2.40;91.20
67182;DHT22;54114;53.524;49.396;2022-12-18T08:29:26;2.40;91.20
67182;DHT22;54114;53.524;49.396;2022-12-18T08:31:53;2.40;91.30
67182;DHT22;54114;53.524;49.396;2022-12-18T08:34:22;2.40;91.40
67182;DHT22;54114;53.524;49.396;2022-12-18T08:36:48;2.50;91.50
67182;DHT22;54114;53.524;49.396;2022-12-18T08:39:17;2.40;91.60
67182;DHT22;54114;53.524;49.396;2022-12-18T08:41:44;2.40;91.60
67182;DHT22;54114;53.524;49.396;2022-12-18T08:44:30;2.40;91.70
67182;DHT22;54114;53.524;49.396;2022-12-18T08:47:03;2.40;91.70
67182;DHT22;54114;53.524;49.396;2022-12-18T08:49:30;2.50;91.70
67182;DHT22;54114;53.524;49.396;2022-12-18T08:51:59;2.40;91.80
67182;DHT22;54114;53.524;49.396;2022-12-18T08:54:28;2.50;91.90
67182;DHT22;54114;53.524;49.396;2022-12-18T08:56:57;2.50;91.90
67182;DHT22;54114;53.524;49.396;2022-12-18T08:59:23;2.50;92.00
67182;DHT22;54114;53.524;49.396;2022-12-18T09:01:49;2.50;92.30
67182;DHT22;54114;53.524;49.396;2022-12-18T09:04:16;2.50;92.40
67182;DHT22;54114;53.524;49.396;2022-12-18T09:06:42;2.50;92.10
67182;DHT22;54114;53.524;49.396;2022-12-18T09:09:09;2.50;92.20
67182;DHT22;54114;53.524;49.396;2022-12-18T09:11:38;2.50;92.20
67182;DHT22;54114;53.524;49.396;2022-12-18T09:14:05;2.50;92.20
67182;DHT22;54114;53.524;49.396;2022-12-18T09:16:34;2.50;92.30
67182;DHT22;54114;53.524;49.396;2022-12-18T09:19:01;2.60;92.30
67182;DHT22;54114;53.524;49.396;2022-12-18T09:21:33;2.60;92.40
67182;DHT22;54114;53.524;49.396;2022-12-18T09:24:08;2.60;92.40
67182;DHT22;54114;53.524;49.396;2022-12-18T09:26:38;2.60;92.40
67182;DHT22;54114;53.524;49.396;2022-12-18T09:29:07;2.60;92.40
67182;DHT22;54114;53.524;49.396;2022-12-18T09:31:35;2.60;92.40
67182;DHT22;54114;53.524;49.396;2022-12-18T09:34:01;2.60;92.50
67182;DHT22;54114;53.524;49.396;2022-12-18T09:36:31;2.70;92.50
67182;DHT22;54114;53.524;49.396;2022-12-18T09:38:58;2.70;92.50
67182;DHT22;54114;53.524;49.396;2022-12-18T09:41:39;2.70;92.50
67182;DHT22;54114;53.524;49.396;2022-12-18T09:50:01;2.70;92.50
67182;DHT22;54114;53.524;49.396;2022-12-18T09:52:36;2.80;92.50
67182;DHT22;54114;53.524;49.396;2022-12-18T09:55:37;2.70;92.50
67182;DHT22;54114;53.524;49.396;2022-12-18T10:00:38;2.80;92.60
67182;DHT22;54114;53.524;49.396;2022-12-18T10:03:11;2.80;92.60
67182;DHT22;54114;53.524;49.396;2022-12-18T10:08:42;2.80;92.70
67182;DHT22;54114;53.524;49.396;2022-12-18T10:11:26;2.80;92.70
67182;DHT22;54114;53.524;49.396;2022-12-18T10:16:43;2.90;92.80
67182;DHT22;54114;53.524;49.396;2022-12-18T10:21:58;2.90;92.90
67182;DHT22;54114;53.524;49.396;2022-12-18T10:27:15;3.00;93.00
67182;DHT22;54114;53.524;49.396;2022-12-18T10:29:48;3.00;93.10
67182;DHT22;54114;53.524;49.396;2022-12-18T10:32:19;3.00;93.10
67182;DHT22;54114;53.524;49.396;2022-12-18T10:34:51;3.00;93.10
67182;DHT22;54114;53.524;49.396;2022-12-18T10:37:22;3.00;93.10
67182;DHT22;54114;53.524;49.396;2022-12-18T10:40:12;3.10;93.10
67182;DHT22;54114;53.524;49.396;2022-12-18T10:42:42;3.10;93.10
67182;DHT22;54114;53.524;49.396;2022-12-18T10:45:11;3.10;93.10
67182;DHT22;54114;53.524;49.396;2022-12-18T10:47:46;3.10;93.40
67182;DHT22;54114;53.524;49.396;2022-12-18T10:50:22;3.10;93.10
67182;DHT22;54114;53.524;49.396;2022-12-18T10:52:56;3.10;93.20
67182;DHT22;54114;53.524;49.396;2022-12-18T10:55:24;3.10;93.20
67182;DHT22;54114;53.524;49.396;2022-12-18T10:58:01;3.10;93.20
67182;DHT22;54114;53.524;49.396;2022-12-18T11:00:42;3.10;93.20
67182;DHT22;54114;53.524;49.396;2022-12-18T11:06:51;3.20;93.20
67182;DHT22;54114;53.524;49.396;2022-12-18T11:09:03;3.20;93.10
67182;DHT22;54114;53.524;49.396;2022-12-18T11:11:31;3.20;93.10
67182;DHT22;54114;53.524;49.396;2022-12-18T11:14:04;3.20;93.10
67182;DHT22;54114;53.524;49.396;2022-12-18T11:16:34;3.20;93.10
67182;DHT22;54114;53.524;49.396;2022-12-18T11:19:10;3.20;93.10
67182;DHT22;54114;53.524;49.396;2022-12-18T11:21:59;3.20;93.10
67182;DHT22;54114;53.524;49.396;2022-12-18T11:27:03;3.30;93.20
67182;DHT22;54114;53.524;49.396;2022-12-18T11:29:36;3.30;93.20
67182;DHT22;54114;53.524;49.396;2022-12-18T11:34:51;3.30;93.20
67182;DHT22;54114;53.524;49.396;2022-12-18T11:37:23;3.30;93.20
67182;DHT22;54114;53.524;49.396;2022-12-18T11:40:09;3.30;93.20
67182;DHT22;54114;53.524;49.396;2022-12-18T11:45:28;3.40;93.20
67182;DHT22;54114;53.524;49.396;2022-12-18T11:48:10;3.40;93.20
67182;DHT22;54114;53.524;49.396;2022-12-18T11:50:56;3.40;93.20
67182;DHT22;54114;53.524;49.396;2022-12-18T11:53:25;3.40;93.10
67182;DHT22;54114;53.524;49.396;2022-12-18T11:58:59;3.40;93.10
67182;DHT22;54114;53.524;49.396;2022-12-18T12:01:44;3.40;93.10
67182;DHT22;54114;53.524;49.396;2022-12-18T12:04:22;3.40;93.10
67182;DHT22;54114;53.524;49.396;2022-12-18T12:07:12;3.40;93.10
67182;DHT22;54114;53.524;49.396;2022-12-18T12:24:05;3.40;93.10
67182;DHT22;54114;53.524;49.396;2022-12-18T12:26:52;3.40;93.10
67182;DHT22;54114;53.524;49.396;2022-12-18T12:38:10;3.50;93.10
67182;DHT22;54114;53.524;49.396;2022-12-18T12:40:44;3.50;93.10
67182;DHT22;54114;53.524;49.396;2022-12-18T12:46:14;3.50;93.10
67182;DHT22;54114;53.524;49.396;2022-12-18T12:48:44;3.50;93.10
67182;DHT22;54114;53.524;49.396;2022-12-18T12:51:22;3.50;93.10
67182;DHT22;54114;53.524;49.396;2022-12-18T12:54:02;3.50;93.10
67182;DHT22;54114;53.524;49.396;2022-12-18T12:59:14;3.50;93.10
67182;DHT22;54114;53.524;49.396;2022-12-18T13:07:26;3.60;93.10
67182;DHT22;54114;53.524;49.396;2022-12-18T13:12:58;3.60;93.00
67182;DHT22;54114;53.524;49.396;2022-12-18T13:15:33;3.60;93.00
67182;DHT22;54114;53.524;49.396;2022-12-18T13:18:21;3.60;93.00
67182;DHT22;54114;53.524;49.396;2022-12-18T13:21:03;3.60;93.00
67182;DHT22;54114;53.524;49.396;2022-12-18T13:23:49;3.60;93.00
67182;DHT22;54114;53.524;49.396;2022-12-18T13:28:52;3.60;93.10
67182;DHT22;54114;53.524;49.396;2022-12-18T13:34:20;3.60;93.20
67182;DHT22;54114;53.524;49.396;2022-12-18T13:36:48;3.60;93.20
67182;DHT22;54114;53.524;49.396;2022-12-18T13:41:45;3.70;93.20
67182;DHT22;54114;53.524;49.396;2022-12-18T13:44:13;3.70;93.30
67182;DHT22;54114;53.524;49.396;2022-12-18T13:46:58;3.70;93.20
67182;DHT22;54114;53.524;49.396;2022-12-18T13:51:55;3.80;93.20
67182;DHT22;54114;53.524;49.396;2022-12-18T13:54:35;3.80;93.20
67182;DHT22;54114;53.524;49.396;2022-12-18T13:57:03;3.80;93.20
67182;DHT22;54114;53.524;49.396;2022-12-18T13:59:35;3.80;93.20
67182;DHT22;54114;53.524;49.396;2022-12-18T14:02:11;3.80;93.20
67182;DHT22;54114;53.524;49.396;2022-12-18T14:04:40;3.80;93.20
67182;DHT22;54114;53.524;49.396;2022-12-18T14:07:07;3.80;93.20
67182;DHT22;54114;53.524;49.396;2022-12-18T14:09:39;3.90;93.20
67182;DHT22;54114;53.524;49.396;2022-12-18T14:12:21;3.90;93.20
67182;DHT22;54114;53.524;49.396;2022-12-18T14:15:20;3.90;93.20
67182;DHT22;54114;53.524;49.396;2022-12-18T14:17:52;3.90;93.10
67182;DHT22;54114;53.524;49.396;2022-12-18T14:20:24;3.90;93.10
67182;DHT22;54114;53.524;49.396;2022-12-18T14:22:51;3.90;93.10
67182;DHT22;54114;53.524;49.396;2022-12-18T14:25:20;3.90;93.10
67182;DHT22;54114;53.524;49.396;2022-12-18T14:27:51;3.90;93.10
67182;DHT22;54114;53.524;49.396;2022-12-18T14:30:39;3.90;93.00
67182;DHT22;54114;53.524;49.396;2022-12-18T14:36:14;3.90;93.00
67182;DHT22;54114;53.524;49.396;2022-12-18T14:38:43;4.00;93.00
67182;DHT22;54114;53.524;49.396;2022-12-18T14:41:13;4.00;93.00
67182;DHT22;54114;53.524;49.396;2022-12-18T14:43:42;4.00;93.00
67182;DHT22;54114;53.524;49.396;2022-12-18T14:48:54;4.00;92.90
67182;DHT22;54114;53.524;49.396;2022-12-18T14:51:22;4.00;93.00
67182;DHT22;54114;53.524;49.396;2022-12-18T14:54:05;3.90;93.00
67182;DHT22;54114;53.524;49.396;2022-12-18T14:56:34;3.90;93.00
67182;DHT22;54114;53.524;49.396;2022-12-18T14:59:05;3.90;93.00
67182;DHT22;54114;53.524;49.396;2022-12-18T15:01:44;3.90;93.00
67182;DHT22;54114;53.524;49.396;2022-12-18T15:07:09;3.90;93.00
67182;DHT22;54114;53.524;49.396;2022-12-18T15:12:40;4.00;93.10
67182;DHT22;54114;53.524;49.396;2022-12-18T15:18:02;4.00;93.10
67182;DHT22;54114;53.524;49.396;2022-12-18T15:20:32;4.00;93.10
67182;DHT22;54114;53.524;49.396;2022-12-18T15:23:12;4.10;93.10
67182;DHT22;54114;53.524;49.396;2022-12-18T15:25:59;4.00;93.00
67182;DHT22;54114;53.524;49.396;2022-12-18T15:28:26;4.00;93.00
67182;DHT22;54114;53.524;49.396;2022-12-18T15:33:35;4.10;93.00
67182;DHT22;54114;53.524;49.396;2022-12-18T15:36:03;4.10;93.00
67182;DHT22;54114;53.524;49.396;2022-12-18T15:38:31;4.10;93.10
67182;DHT22;54114;53.524;49.396;2022-12-18T15:40:57;4.10;93.10
67182;DHT22;54114;53.524;49.396;2022-12-18T15:43:24;4.10;93.10
67182;DHT22;54114;53.524;49.396;2022-12-18T15:46:01;4.10;93.00
67182;DHT22;54114;53.524;49.396;2022-12-18T15:48:39;4.20;93.10
67182;DHT22;54114;53.524;49.396;2022-12-18T15:51:11;4.10;93.00
67182;DHT22;54114;53.524;49.396;2022-12-18T15:53:40;4.20;93.10
67182;DHT22;54114;53.524;49.396;2022-12-18T15:56:10;4.20;93.10
67182;DHT22;54114;53.524;49.396;2022-12-18T15:58:56;4.20;93.10
67182;DHT22;54114;53.524;49.396;2022-12-18T16:01:23;4.20;93.00
67182;DHT22;54114;53.524;49.396;2022-12-18T16:03:50;4.20;93.00
67182;DHT22;54114;53.524;49.396;2022-12-18T16:06:17;4.30;93.00
67182;DHT22;54114;53.524;49.396;2022-12-18T16:08:43;4.30;93.20
67182;DHT22;54114;53.524;49.396;2022-12-18T16:14:19;4.30;92.80
67182;DHT22;54114;53.524;49.396;2022-12-18T16:16:53;4.20;92.80
67182;DHT22;54114;53.524;49.396;2022-12-18T16:19:20;4.30;92.80
67182;DHT22;54114;53.524;49.396;2022-12-18T16:21:47;4.30;92.90
67182;DHT22;54114;53.524;49.396;2022-12-18T16:24:23;4.20;92.80
67182;DHT22;54114;53.524;49.396;2022-12-18T16:26:51;4.20;92.80
67182;DHT22;54114;53.524;49.396;2022-12-18T16:29:18;4.20;92.70
67182;DHT22;54114;53.524;49.396;2022-12-18T16:31:56;4.20;92.80
67182;DHT22;54114;53.524;49.396;2022-12-18T16:34:24;4.20;92.80
67182;DHT22;54114;53.524;49.396;2022-12-18T16:37:00;4.20;92.80
67182;DHT22;54114;53.524;49.396;2022-12-18T16:39:30;4.20;92.80
67182;DHT22;54114;53.524;49.396;2022-12-18T16:41:57;4.20;92.80
67182;DHT22;54114;53.524;49.396;2022-12-18T16:44:24;4.20;92.80
67182;DHT22;54114;53.524;49.396;2022-12-18T16:46:50;4.20;92.80
67182;DHT22;54114;53.524;49.396;2022-12-18T16:49:17;4.20;92.80
67182;DHT22;54114;53.524;49.396;2022-12-18T16:51:47;4.20;92.90
67182;DHT22;54114;53.524;49.396;2022-12-18T16:54:13;4.20;92.90
67182;DHT22;54114;53.524;49.396;2022-12-18T16:56:45;4.20;93.00
67182;DHT22;54114;53.524;49.396;2022-12-18T16:59:14;4.20;92.90
67182;DHT22;54114;53.524;49.396;2022-12-18T17:01:43;4.20;92.90
67182;DHT22;54114;53.524;49.396;2022-12-18T17:04:09;4.30;92.90
67182;DHT22;54114;53.524;49.396;2022-12-18T17:06:40;4.20;92.80
67182;DHT22;54114;53.524;49.396;2022-12-18T17:09:10;4.30;92.80
67182;DHT22;54114;53.524;49.396;2022-12-18T17:11:38;4.20;92.80
67182;DHT22;54114;53.524;49.396;2022-12-18T17:14:05;4.20;92.90
67182;DHT22;54114;53.524;49.396;2022-12-18T17:16:33;4.20;92.80
67182;DHT22;54114;53.524;49.396;2022-12-18T17:19:04;4.30;92.90
67182;DHT22;54114;53.524;49.396;2022-12-18T17:21:33;4.30;92.90
67182;DHT22;54114;53.524;49.396;2022-12-18T17:23:59;4.30;92.90
67182;DHT22;54114;53.524;49.396;2022-12-18T17:26:26;4.30;92.90
67182;DHT22;54114;53.524;49.396;2022-12-18T17:28:54;4.30;92.90
67182;DHT22;54114;53.524;49.396;2022-12-18T17:31:24;4.30;92.90
67182;DHT22;54114;53.524;49.396;2022-12-18T17:33:52;4.30;92.90
67182;DHT22;54114;53.524;49.396;2022-12-18T17:36:21;4.30;92.90
67182;DHT22;54114;53.524;49.396;2022-12-18T17:38:51;4.30;92.80
67182;DHT22;54114;53.524;49.396;2022-12-18T17:41:18;4.30;92.90
67182;DHT22;54114;53.524;49.396;2022-12-18T17:43:52;4.30;92.80
67182;DHT22;54114;53.524;49.396;2022-12-18T17:46:18;4.30;92.80
67182;DHT22;54114;53.524;49.396;2022-12-18T17:48:45;4.20;92.80
67182;DHT22;54114;53.524;49.396;2022-12-18T17:51:12;4.20;92.80
67182;DHT22;54114;53.524;49.396;2022-12-18T17:53:39;4.20;92.80
67182;DHT22;54114;53.524;49.396;2022-12-18T17:56:06;4.20;92.90
67182;DHT22;54114;53.524;49.396;2022-12-18T17:58:34;4.20;93.00
67182;DHT22;54114;53.524;49.396;2022-12-18T18:01:01;4.20;93.00
67182;DHT22;54114;53.524;49.396;2022-12-18T18:03:31;4.20;93.00
67182;DHT22;54114;53.524;49.396;2022-12-18T18:05:59;4.20;93.00
67182;DHT22;54114;53.524;49.396;2022-12-18T18:08:26;4.20;93.10
67182;DHT22;54114;53.524;49.396;2022-12-18T18:10:54;4.30;93.10